createdAt,value
2023-04-09T00:00:31.766Z,7.13
2023-04-09T00:03:00.266Z,6.67
2023-04-09T00:05:29.038Z,6.70
2023-04-09T00:08:01.190Z,6.70
2023-04-09T00:10:31.373Z,6.90
2023-04-09T00:13:02.702Z,6.90
2023-04-09T00:15:32.100Z,7.17
2023-04-09T00:18:01.542Z,10.37
2023-04-09T00:20:32.564Z,7.30
2023-04-09T00:23:01.583Z,7.40
2023-04-09T00:25:34.110Z,8.03
2023-04-09T00:28:03.768Z,6.33
2023-04-09T00:30:33.530Z,7.80
2023-04-09T00:33:02.388Z,13.60
2023-04-09T00:35:32.428Z,8.63
2023-04-09T00:38:01.951Z,7.03
2023-04-09T00:40:34.081Z,8.17
2023-04-09T00:43:03.200Z,7.50
2023-04-09T00:45:39.574Z,9.70
2023-04-09T00:48:12.273Z,7.80
2023-04-09T00:50:40.964Z,8.70
2023-04-09T00:53:13.929Z,7.57
2023-04-09T00:55:44.446Z,7.73
2023-04-09T00:58:13.790Z,7.90
2023-04-09T01:00:42.994Z,10.77
2023-04-09T01:03:13.853Z,9.37
2023-04-09T01:05:55.955Z,7.27
2023-04-09T01:08:40.501Z,9.00
2023-04-09T01:11:24.057Z,7.00
2023-04-09T01:14:04.563Z,11.20
2023-04-09T01:16:39.161Z,7.67
2023-04-09T01:19:27.209Z,7.80
2023-04-09T01:21:57.562Z,7.30
2023-04-09T01:24:43.133Z,8.53
2023-04-09T01:27:17.627Z,6.40
2023-04-09T01:30:00.058Z,7.40
2023-04-09T01:32:33.787Z,9.63
2023-04-09T01:35:06.527Z,10.67
2023-04-09T01:37:37.102Z,8.83
2023-04-09T01:40:11.093Z,8.57
2023-04-09T01:42:42.575Z,6.80
2023-04-09T01:45:13.817Z,8.10
2023-04-09T01:47:44.083Z,7.03
2023-04-09T01:50:13.441Z,9.40
2023-04-09T01:52:44.790Z,9.40
2023-04-09T01:55:14.172Z,7.27
2023-04-09T01:57:48.214Z,8.70
2023-04-09T02:00:18.978Z,7.77
2023-04-09T02:02:56.893Z,7.27
2023-04-09T02:05:34.720Z,6.90
2023-04-09T02:08:06.392Z,6.77
2023-04-09T02:10:40.613Z,6.40
2023-04-09T02:13:16.150Z,7.20
2023-04-09T02:15:48.656Z,7.50
2023-04-09T02:18:25.935Z,6.53
2023-04-09T02:20:56.085Z,7.33
2023-04-09T02:23:28.808Z,6.90
2023-04-09T02:25:57.918Z,6.77
2023-04-09T02:28:27.395Z,7.63
2023-04-09T02:31:00.399Z,6.37
2023-04-09T02:33:29.123Z,7.53
2023-04-09T02:35:57.975Z,7.80
2023-04-09T02:38:27.808Z,6.57
2023-04-09T02:40:57.653Z,7.23
2023-04-09T02:43:26.419Z,8.50
2023-04-09T02:45:55.054Z,6.80
2023-04-09T02:48:27.203Z,6.43
2023-04-09T02:50:59.573Z,6.43
2023-04-09T02:53:28.761Z,7.33
2023-04-09T02:55:58.124Z,8.10
2023-04-09T02:58:27.200Z,10.40
2023-04-09T03:00:56.118Z,7.00
2023-04-09T03:03:27.442Z,8.83
2023-04-09T03:05:56.126Z,6.70
2023-04-09T03:08:24.946Z,6.33
2023-04-09T03:10:54.096Z,7.90
2023-04-09T03:13:22.581Z,7.37
2023-04-09T03:15:54.984Z,7.23
2023-04-09T03:18:24.273Z,7.07
2023-04-09T03:20:55.871Z,9.07
2023-04-09T03:23:25.117Z,6.60
2023-04-09T03:26:09.609Z,6.30
2023-04-09T03:28:52.474Z,6.27
2023-04-09T03:31:24.455Z,6.93
2023-04-09T03:33:53.570Z,7.60
2023-04-09T03:36:24.569Z,7.27
2023-04-09T03:39:21.026Z,7.30
2023-04-09T03:41:50.381Z,10.03
2023-04-09T03:44:23.361Z,7.90
2023-04-09T03:47:07.452Z,6.10
2023-04-09T03:49:40.337Z,7.00
2023-04-09T03:52:26.076Z,8.57
2023-04-09T03:55:11.415Z,9.33
2023-04-09T03:57:41.469Z,7.77
2023-04-09T04:00:15.459Z,6.00
2023-04-09T04:02:53.238Z,7.10
2023-04-09T04:05:46.371Z,6.13
2023-04-09T04:08:24.278Z,9.77
2023-04-09T04:10:52.802Z,8.33
2023-04-09T04:13:25.567Z,7.63
2023-04-09T04:15:58.912Z,6.50
2023-04-09T04:18:28.497Z,6.83
2023-04-09T04:20:57.741Z,7.17
2023-04-09T04:23:33.460Z,11.80
2023-04-09T04:26:17.401Z,8.47
2023-04-09T04:28:46.674Z,9.50
2023-04-09T04:31:29.243Z,8.70
2023-04-09T04:34:03.321Z,8.87
2023-04-09T04:36:35.125Z,9.23
2023-04-09T04:39:13.583Z,7.30
2023-04-09T04:41:51.996Z,9.73
2023-04-09T04:44:27.404Z,8.63
2023-04-09T04:47:04.990Z,8.83
2023-04-09T04:49:35.880Z,10.13
2023-04-09T04:52:17.795Z,8.60
2023-04-09T04:54:52.739Z,8.63
2023-04-09T04:57:24.868Z,7.93
2023-04-09T04:59:54.635Z,8.30
2023-04-09T05:02:25.027Z,11.07
2023-04-09T05:05:12.911Z,8.27
2023-04-09T05:07:52.481Z,9.50
2023-04-09T05:10:26.964Z,10.43
2023-04-09T05:12:55.776Z,9.63
2023-04-09T05:15:34.389Z,10.00
2023-04-09T05:18:06.981Z,9.70
2023-04-09T05:20:41.731Z,8.30
2023-04-09T05:23:14.221Z,9.37
2023-04-09T05:25:51.977Z,9.40
2023-04-09T05:28:39.013Z,8.60
2023-04-09T05:31:19.020Z,9.83
2023-04-09T05:33:56.509Z,10.93
2023-04-09T05:36:34.683Z,10.87
2023-04-09T05:39:04.060Z,9.83
2023-04-09T05:41:37.385Z,8.73
2023-04-09T05:44:24.644Z,10.90
2023-04-09T05:46:58.123Z,10.47
2023-04-09T05:49:32.785Z,15.63
2023-04-09T05:52:07.510Z,10.53
2023-04-09T05:54:37.614Z,14.23
2023-04-09T05:57:16.565Z,17.13
2023-04-09T05:59:53.161Z,14.10
2023-04-09T06:02:23.244Z,13.17
2023-04-09T06:04:53.100Z,13.87
2023-04-09T06:07:24.389Z,10.87
2023-04-09T06:09:53.599Z,12.63
2023-04-09T06:12:23.872Z,13.87
2023-04-09T06:14:54.118Z,13.20
2023-04-09T06:17:22.383Z,15.07
2023-04-09T06:19:50.902Z,15.13
2023-04-09T06:22:20.630Z,13.73
2023-04-09T06:24:50.673Z,11.90
2023-04-09T06:27:19.467Z,9.73
2023-04-09T06:29:50.125Z,9.97
2023-04-09T06:32:19.597Z,11.30
2023-04-09T06:34:48.322Z,12.20
2023-04-09T06:37:17.725Z,11.80
2023-04-09T06:42:23.684Z,10.93
2023-04-09T06:45:01.233Z,11.83
2023-04-09T06:47:33.684Z,10.43
2023-04-09T06:50:02.623Z,15.97
2023-04-09T06:52:32.260Z,14.63
2023-04-09T06:55:01.298Z,11.30
2023-04-09T06:57:31.183Z,12.00
2023-04-09T07:00:02.135Z,12.87
2023-04-09T07:02:31.545Z,10.57
2023-04-09T07:05:02.302Z,11.80
2023-04-09T07:07:30.829Z,10.00
2023-04-09T07:09:59.260Z,10.13
2023-04-09T07:12:32.538Z,9.90
2023-04-09T07:15:04.815Z,8.80
2023-04-09T07:17:33.865Z,10.00
2023-04-09T07:20:02.928Z,7.00
2023-04-09T07:22:32.719Z,8.13
2023-04-09T07:25:01.573Z,6.73
2023-04-09T07:27:30.751Z,7.00
2023-04-09T07:30:01.636Z,7.03
2023-04-09T07:32:33.154Z,7.00
2023-04-09T07:35:02.501Z,6.57
2023-04-09T07:37:30.962Z,8.10
2023-04-09T07:39:59.680Z,7.30
2023-04-09T07:42:28.270Z,8.30
2023-04-09T07:44:57.624Z,7.10
2023-04-09T07:47:28.739Z,9.10
2023-04-09T07:49:57.157Z,8.93
2023-04-09T07:52:28.049Z,7.43
2023-04-09T07:54:57.803Z,8.93
2023-04-09T07:57:26.467Z,7.30
2023-04-09T07:59:55.440Z,9.43
2023-04-09T08:02:26.944Z,8.00
2023-04-09T08:04:55.931Z,7.83
2023-04-09T08:07:26.067Z,7.10
2023-04-09T08:09:54.536Z,8.27
2023-04-09T08:12:23.432Z,7.70
2023-04-09T08:14:52.710Z,6.87
2023-04-09T08:17:21.156Z,7.03
2023-04-09T08:19:51.332Z,15.27
2023-04-09T08:22:19.874Z,7.90
2023-04-09T08:24:53.310Z,7.77
2023-04-09T08:27:25.174Z,5.90
2023-04-09T08:29:53.457Z,6.73
2023-04-09T08:32:22.355Z,6.20
2023-04-09T08:34:52.441Z,7.40
2023-04-09T08:37:21.246Z,7.30
2023-04-09T08:39:49.808Z,6.97
2023-04-09T08:42:18.839Z,5.80
2023-04-09T08:44:48.255Z,5.30
2023-04-09T08:47:17.216Z,6.33
2023-04-09T08:49:48.489Z,7.03
2023-04-09T08:52:24.001Z,5.20
2023-04-09T08:54:53.743Z,5.97
2023-04-09T08:57:22.073Z,6.53
2023-04-09T08:59:52.125Z,6.17
2023-04-09T09:02:21.795Z,6.77
2023-04-09T09:04:53.830Z,5.77
2023-04-09T09:07:24.865Z,4.50
2023-04-09T09:09:55.603Z,5.43
2023-04-09T09:12:35.637Z,6.03
2023-04-09T09:15:05.423Z,5.30
2023-04-09T09:17:34.284Z,29.27
2023-04-09T09:20:22.173Z,50.17
2023-04-09T09:22:55.038Z,4.37
2023-04-09T09:25:26.898Z,4.20
2023-04-09T09:27:56.393Z,4.30
2023-04-09T09:30:27.200Z,4.43
2023-04-09T09:33:07.093Z,5.77
2023-04-09T09:35:52.081Z,4.30
2023-04-09T09:38:23.445Z,4.90
2023-04-09T09:40:54.344Z,3.70
2023-04-09T09:43:24.009Z,5.03
2023-04-09T09:45:53.697Z,5.23
2023-04-09T09:48:26.370Z,4.40
2023-04-09T09:50:57.093Z,3.70
2023-04-09T09:53:28.730Z,3.30
2023-04-09T09:56:03.147Z,3.70
2023-04-09T09:58:39.270Z,5.07
2023-04-09T10:01:14.460Z,3.43
2023-04-09T10:03:47.845Z,2.50
2023-04-09T10:06:17.018Z,3.30
2023-04-09T10:08:52.613Z,3.27
2023-04-09T10:11:24.211Z,3.20
2023-04-09T10:13:59.513Z,2.90
2023-04-09T10:16:31.641Z,3.20
2023-04-09T10:19:04.256Z,3.70
2023-04-09T10:21:43.689Z,4.30
2023-04-09T10:24:17.025Z,4.50
2023-04-09T10:26:46.564Z,3.57
2023-04-09T10:29:17.004Z,3.70
2023-04-09T10:31:53.625Z,4.33
2023-04-09T10:34:25.644Z,3.60
2023-04-09T10:36:58.224Z,3.20
2023-04-09T10:39:33.388Z,3.80
2023-04-09T10:42:09.796Z,4.17
2023-04-09T10:44:42.828Z,3.70
2023-04-09T10:47:13.415Z,3.67
2023-04-09T10:49:44.662Z,3.47
2023-04-09T10:52:16.003Z,5.30
2023-04-09T10:54:48.228Z,4.10
2023-04-09T10:57:22.281Z,4.63
2023-04-09T10:59:55.232Z,4.03
2023-04-09T11:03:21.224Z,4.10
2023-04-09T11:05:53.940Z,3.70
2023-04-09T11:08:24.054Z,3.47
2023-04-09T11:10:59.165Z,4.43
2023-04-09T11:13:30.310Z,3.60
2023-04-09T11:16:00.830Z,3.70
2023-04-09T11:18:34.211Z,4.20
2023-04-09T11:21:05.041Z,4.00
2023-04-09T11:23:40.043Z,3.93
2023-04-09T11:26:16.541Z,4.33
2023-04-09T11:28:46.925Z,4.20
2023-04-09T11:31:16.678Z,4.93
2023-04-09T11:33:50.397Z,4.40
2023-04-09T11:36:19.253Z,4.40
2023-04-09T11:38:50.096Z,3.70
2023-04-09T11:41:20.631Z,3.27
2023-04-09T11:43:53.788Z,3.17
2023-04-09T11:46:26.204Z,4.17
2023-04-09T11:48:55.372Z,3.17
2023-04-09T11:51:27.463Z,3.20
2023-04-09T11:53:56.462Z,3.00
2023-04-09T11:56:27.484Z,3.03
2023-04-09T11:58:56.913Z,7.80
2023-04-09T12:01:26.215Z,3.83
2023-04-09T12:03:56.408Z,3.40
2023-04-09T12:06:26.230Z,3.43
2023-04-09T12:08:55.871Z,3.40
2023-04-09T12:11:31.341Z,3.33
2023-04-09T12:14:03.758Z,3.60
2023-04-09T12:16:35.287Z,3.60
2023-04-09T12:19:05.494Z,2.93
2023-04-09T12:21:50.134Z,3.70
2023-04-09T12:24:21.713Z,2.77
2023-04-09T12:26:52.559Z,3.20
2023-04-09T12:29:24.886Z,3.47
2023-04-09T12:31:58.001Z,8.50
2023-04-09T12:34:27.643Z,4.60
2023-04-09T12:36:57.083Z,2.40
2023-04-09T12:39:26.102Z,2.93
2023-04-09T12:41:56.243Z,3.37
2023-04-09T12:44:24.601Z,3.37
2023-04-09T12:46:57.240Z,3.23
2023-04-09T12:49:26.256Z,3.27
2023-04-09T12:51:55.722Z,2.63
2023-04-09T12:54:24.609Z,3.00
2023-04-09T12:56:53.402Z,4.00
2023-04-09T12:59:24.827Z,3.50
2023-04-09T13:01:58.260Z,4.23
2023-04-09T13:04:28.888Z,3.77
2023-04-09T13:07:04.820Z,4.33
2023-04-09T13:09:35.565Z,4.20
2023-04-09T13:12:04.313Z,4.10
2023-04-09T13:14:34.214Z,4.27
2023-04-09T13:17:02.949Z,4.10
2023-04-09T13:19:31.500Z,4.23
2023-04-09T13:22:00.944Z,3.90
2023-04-09T13:24:30.286Z,3.90
2023-04-09T13:27:02.456Z,3.80
2023-04-09T13:29:31.988Z,4.63
2023-04-09T13:32:08.236Z,3.73
2023-04-09T13:34:37.787Z,4.97
2023-04-09T13:37:09.014Z,4.90
2023-04-09T13:39:37.825Z,4.13
2023-04-09T13:42:13.544Z,3.20
2023-04-09T13:44:45.169Z,4.10
2023-04-09T13:47:18.982Z,4.13
2023-04-09T13:49:51.507Z,4.00
2023-04-09T13:52:20.300Z,4.27
2023-04-09T13:54:49.463Z,5.00
2023-04-09T13:57:18.827Z,4.93
2023-04-09T13:59:48.918Z,4.60
2023-04-09T14:02:20.001Z,4.40
2023-04-09T14:04:48.538Z,5.60
2023-04-09T14:07:17.734Z,5.23
2023-04-09T14:09:50.820Z,4.70
2023-04-09T14:12:26.463Z,5.17
2023-04-09T14:14:56.283Z,5.27
2023-04-09T14:17:28.062Z,7.30
2023-04-09T14:19:59.299Z,5.00
2023-04-09T14:22:31.672Z,4.87
2023-04-09T14:25:00.768Z,4.90
2023-04-09T14:27:29.979Z,4.93
2023-04-09T14:29:58.484Z,4.47
2023-04-09T14:32:29.170Z,4.00
2023-04-09T14:34:58.207Z,4.27
2023-04-09T14:37:38.517Z,3.63
2023-04-09T14:40:09.729Z,3.53
2023-04-09T14:42:38.475Z,3.30
2023-04-09T14:45:19.584Z,4.00
2023-04-09T14:47:50.443Z,4.57
2023-04-09T14:50:19.918Z,4.97
2023-04-09T14:52:49.315Z,3.67
2023-04-09T14:55:21.181Z,4.33
2023-04-09T14:57:50.383Z,4.40
2023-04-09T15:00:19.682Z,7.07
2023-04-09T15:02:50.486Z,4.97
2023-04-09T15:05:30.747Z,20.23
2023-04-09T15:08:02.580Z,4.73
2023-04-09T15:10:31.717Z,4.70
2023-04-09T15:13:21.639Z,3.67
2023-04-09T15:15:52.165Z,4.57
2023-04-09T15:18:24.001Z,4.20
2023-04-09T15:20:53.151Z,4.87
2023-04-09T15:23:21.896Z,4.23
2023-04-09T15:25:53.085Z,3.93
2023-04-09T15:28:23.346Z,4.40
2023-04-09T15:30:51.550Z,4.10
2023-04-09T15:33:23.239Z,4.30
2023-04-09T15:35:54.227Z,4.50
2023-04-09T15:38:25.232Z,4.43
2023-04-09T15:40:54.211Z,3.17
2023-04-09T15:43:23.637Z,4.13
2023-04-09T15:45:55.029Z,3.87
2023-04-09T15:48:25.893Z,3.60
2023-04-09T15:50:54.551Z,4.37
2023-04-09T15:53:29.558Z,3.97
2023-04-09T15:56:00.007Z,8.60
2023-04-09T15:58:30.921Z,5.43
2023-04-09T16:00:59.674Z,4.67
2023-04-09T16:03:37.111Z,3.63
2023-04-09T16:06:07.433Z,4.30
2023-04-09T16:08:41.637Z,4.00
2023-04-09T16:11:11.689Z,4.13
2023-04-09T16:13:40.497Z,3.70
2023-04-09T16:16:09.546Z,3.80
2023-04-09T16:18:39.531Z,4.37
2023-04-09T16:21:08.679Z,3.70
2023-04-09T16:23:41.772Z,4.53
2023-04-09T16:26:13.106Z,3.60
2023-04-09T16:28:42.996Z,3.50
2023-04-09T16:31:12.070Z,3.47
2023-04-09T16:34:06.152Z,4.50
2023-04-09T16:36:37.472Z,4.43
2023-04-09T16:39:06.995Z,4.47
2023-04-09T16:41:37.208Z,5.67
2023-04-09T16:44:07.465Z,5.97
2023-04-09T16:46:36.789Z,5.27
2023-04-09T16:49:06.828Z,5.37
2023-04-09T16:51:37.110Z,4.97
2023-04-09T16:54:07.110Z,5.13
2023-04-09T16:56:36.138Z,5.20
2023-04-09T16:59:06.239Z,5.87
2023-04-09T17:01:35.167Z,4.93
2023-04-09T17:04:03.921Z,4.77
2023-04-09T17:06:35.571Z,5.27
2023-04-09T17:09:05.610Z,4.83
2023-04-09T17:11:35.368Z,5.50
2023-04-09T17:14:05.867Z,6.00
2023-04-09T17:16:36.336Z,5.90
2023-04-09T17:19:05.012Z,8.80
2023-04-09T17:21:43.294Z,6.37
2023-04-09T17:24:12.450Z,7.93
2023-04-09T17:26:41.256Z,5.67
2023-04-09T17:29:09.549Z,5.90
2023-04-09T17:31:40.231Z,6.03
2023-04-09T17:34:09.628Z,6.20
2023-04-09T17:36:41.399Z,7.17
2023-04-09T17:39:09.798Z,8.67
2023-04-09T17:41:38.759Z,8.90
2023-04-09T17:44:08.344Z,10.60
2023-04-09T17:46:37.397Z,9.57
2023-04-09T17:49:09.807Z,9.00
2023-04-09T17:51:40.098Z,33.50
2023-04-09T17:54:08.646Z,8.87
2023-04-09T17:56:39.099Z,7.50
2023-04-09T17:59:07.901Z,7.00
2023-04-09T18:01:40.020Z,6.17
2023-04-09T18:04:09.243Z,6.67
2023-04-09T18:06:42.783Z,6.73
2023-04-09T18:09:12.925Z,7.73
2023-04-09T18:11:42.601Z,5.37
2023-04-09T18:14:13.242Z,5.37
2023-04-09T18:16:44.253Z,6.33
2023-04-09T18:19:13.730Z,6.07
2023-04-09T18:21:44.558Z,6.83
2023-04-09T18:24:15.135Z,6.73
2023-04-09T18:26:43.603Z,8.50
2023-04-09T18:29:13.769Z,9.77
2023-04-09T18:31:43.167Z,6.53
2023-04-09T18:34:11.892Z,11.20
2023-04-09T18:36:41.766Z,7.03
2023-04-09T18:39:12.223Z,7.27
2023-04-09T18:41:40.918Z,8.57
2023-04-09T18:44:09.629Z,7.83
2023-04-09T18:46:39.547Z,10.70
2023-04-09T18:49:08.402Z,10.37
2023-04-09T18:51:37.350Z,9.60
2023-04-09T18:54:06.857Z,10.33
2023-04-09T18:56:39.146Z,10.37
2023-04-09T18:59:09.600Z,11.27
2023-04-09T19:01:39.269Z,8.07
2023-04-09T19:04:08.534Z,9.90
2023-04-09T19:06:38.546Z,7.40
2023-04-09T19:09:07.755Z,9.57
2023-04-09T19:11:40.213Z,10.77
2023-04-09T19:14:10.046Z,16.17
2023-04-09T19:16:40.292Z,11.60
2023-04-09T19:19:10.176Z,12.77
2023-04-09T19:21:38.806Z,10.50
2023-04-09T19:24:08.065Z,11.50
2023-04-09T19:26:39.737Z,9.27
2023-04-09T19:29:09.257Z,6.90
2023-04-09T19:31:37.716Z,9.43
2023-04-09T19:34:10.910Z,6.47
2023-04-09T19:36:39.535Z,6.03
2023-04-09T19:39:11.130Z,8.23
2023-04-09T19:41:41.910Z,6.53
2023-04-09T19:44:12.168Z,7.80
2023-04-09T19:46:41.031Z,9.93
2023-04-09T19:49:10.045Z,7.80
2023-04-09T19:51:38.778Z,7.07
2023-04-09T19:54:10.943Z,31.83
2023-04-09T19:56:45.305Z,27.77
2023-04-09T19:59:17.452Z,8.93
2023-04-09T20:01:48.047Z,5.93
2023-04-09T20:04:16.657Z,6.73
2023-04-09T20:06:48.538Z,7.90
2023-04-09T20:09:18.509Z,8.10
2023-04-09T20:11:55.233Z,9.30
2023-04-09T20:14:27.223Z,9.47
2023-04-09T20:16:57.581Z,8.50
2023-04-09T20:19:27.909Z,9.17
2023-04-09T20:21:56.800Z,9.10
2023-04-09T20:24:27.064Z,7.60
2023-04-09T20:26:59.760Z,8.23
2023-04-09T20:29:28.425Z,10.27
2023-04-09T20:31:58.040Z,12.33
2023-04-09T20:34:27.783Z,7.87
2023-04-09T20:37:00.889Z,8.73
2023-04-09T20:39:31.135Z,8.57
2023-04-09T20:42:01.410Z,9.37
2023-04-09T20:44:30.528Z,9.87
2023-04-09T20:46:59.036Z,9.37
2023-04-09T20:49:29.507Z,9.47
2023-04-09T20:52:00.780Z,10.97
2023-04-09T20:54:32.889Z,11.00
2023-04-09T20:57:05.629Z,8.87
2023-04-09T20:59:37.447Z,10.00
2023-04-09T21:02:06.601Z,11.17
2023-04-09T21:04:35.033Z,9.07
2023-04-09T21:07:03.618Z,9.17
2023-04-09T21:09:32.466Z,7.67
2023-04-09T21:12:02.859Z,8.17
2023-04-09T21:14:32.102Z,7.80
2023-04-09T21:17:04.612Z,8.93
2023-04-09T21:19:36.844Z,8.50
2023-04-09T21:22:05.973Z,8.97
2023-04-09T21:24:38.214Z,8.43
2023-04-09T21:27:08.520Z,7.80
2023-04-09T21:29:37.341Z,9.80
2023-04-09T21:32:14.153Z,7.53
2023-04-09T21:34:45.688Z,8.77
2023-04-09T21:37:14.656Z,9.80
2023-04-09T21:39:45.375Z,10.60
2023-04-09T21:42:18.669Z,9.60
2023-04-09T21:44:47.974Z,10.37
2023-04-09T21:47:18.902Z,9.63
2023-04-09T21:49:48.025Z,10.60
2023-04-09T21:52:18.278Z,11.03
2023-04-09T21:54:48.466Z,10.37
2023-04-09T21:57:19.000Z,10.90
2023-04-09T21:59:48.225Z,7.30
2023-04-09T22:02:19.165Z,8.37
2023-04-09T22:04:49.062Z,9.20
2023-04-09T22:07:18.869Z,10.70
2023-04-09T22:09:48.840Z,9.47
2023-04-09T22:12:25.649Z,9.87
2023-04-09T22:14:56.937Z,11.30
2023-04-09T22:17:25.204Z,11.77
2023-04-09T22:19:58.844Z,12.13
2023-04-09T22:22:32.480Z,11.10
2023-04-09T22:25:01.874Z,12.00
2023-04-09T22:27:32.995Z,14.40
2023-04-09T22:30:07.484Z,13.43
2023-04-09T22:32:36.495Z,12.47
2023-04-09T22:35:09.846Z,15.83
2023-04-09T22:37:38.528Z,12.10
2023-04-09T22:40:14.604Z,15.53
2023-04-09T22:42:46.748Z,10.67
2023-04-09T22:45:16.090Z,14.63
2023-04-09T22:47:46.490Z,11.30
2023-04-09T22:50:15.541Z,10.77
2023-04-09T22:52:44.500Z,11.10
2023-04-09T22:55:14.541Z,9.77
2023-04-09T22:57:45.782Z,11.77
2023-04-09T23:00:18.381Z,10.90
2023-04-09T23:02:47.949Z,12.33
2023-04-09T23:05:19.244Z,12.37
2023-04-09T23:07:49.891Z,10.93
2023-04-09T23:10:18.521Z,11.23
2023-04-09T23:12:48.861Z,11.70
2023-04-09T23:15:22.059Z,12.03
2023-04-09T23:17:52.375Z,12.00
2023-04-09T23:20:21.465Z,12.87
2023-04-09T23:22:54.567Z,12.63
2023-04-09T23:25:24.594Z,12.63
2023-04-09T23:27:55.190Z,12.60
2023-04-09T23:30:24.754Z,11.37
2023-04-09T23:32:57.449Z,12.30
2023-04-09T23:35:28.894Z,10.83
2023-04-09T23:38:00.133Z,12.37
2023-04-09T23:40:31.341Z,13.27
2023-04-09T23:43:02.241Z,9.50
2023-04-09T23:45:31.244Z,12.70
2023-04-09T23:48:00.433Z,11.07
2023-04-09T23:50:30.724Z,9.43
2023-04-09T23:53:01.044Z,11.73
2023-04-09T23:55:30.184Z,14.17
2023-04-09T23:58:02.801Z,10.40
